createdAt,value
2022-09-30T00:01:33.035Z,100405.78
2022-09-30T00:03:38.252Z,100405.66
2022-09-30T00:05:42.117Z,100402.78
2022-09-30T00:07:45.962Z,100398.03
2022-09-30T00:09:50.036Z,100393.38
2022-09-30T00:11:54.507Z,100399.22
2022-09-30T00:13:58.414Z,100398.03
2022-09-30T00:16:03.382Z,100391.56
2022-09-30T00:18:07.064Z,100400.25
2022-09-30T00:20:12.243Z,100389.66
2022-09-30T00:22:16.281Z,100384.13
2022-09-30T00:24:20.173Z,100376.94
2022-09-30T00:26:25.324Z,100380.31
2022-09-30T00:28:29.626Z,100377.47
2022-09-30T00:30:34.369Z,100364.94
2022-09-30T00:32:37.996Z,100372.69
2022-09-30T00:34:42.098Z,100371.72
2022-09-30T00:36:49.947Z,100367.88
2022-09-30T00:38:53.609Z,100362.59
2022-09-30T00:40:59.937Z,100374.38
2022-09-30T00:43:05.018Z,100360.41
2022-09-30T00:45:12.450Z,100362.09
2022-09-30T00:47:46.129Z,100362.94
2022-09-30T00:49:50.664Z,100350.63
2022-09-30T00:51:58.860Z,100346.19
2022-09-30T00:54:06.050Z,100346.19
2022-09-30T00:56:12.930Z,100346.19
2022-09-30T00:58:22.784Z,100340.91
2022-09-30T01:00:26.769Z,100334.75
2022-09-30T01:02:30.953Z,100337.72
2022-09-30T01:04:36.902Z,100332.56
2022-09-30T01:06:41.002Z,100325.66
2022-09-30T01:08:48.262Z,100313.59
2022-09-30T01:10:51.853Z,100306.19
2022-09-30T01:12:55.970Z,100302.31
2022-09-30T01:15:01.784Z,100298.19
2022-09-30T01:17:10.892Z,100290.22
2022-09-30T01:19:39.507Z,100284.00
2022-09-30T01:22:00.904Z,100279.31
2022-09-30T01:24:47.558Z,100275.47
2022-09-30T01:27:13.464Z,100272.72
2022-09-30T01:29:52.440Z,100266.94
2022-09-30T01:32:05.666Z,100261.63
2022-09-30T01:34:15.834Z,100274.97
2022-09-30T01:36:34.624Z,100282.69
2022-09-30T01:38:48.770Z,100270.94
2022-09-30T01:41:03.411Z,100261.06
2022-09-30T01:43:13.780Z,100244.34
2022-09-30T01:45:20.954Z,100246.13
2022-09-30T01:47:30.447Z,100252.41
2022-09-30T01:49:40.698Z,100246.22
2022-09-30T01:51:53.755Z,100231.22
2022-09-30T01:54:01.863Z,100219.16
2022-09-30T01:56:09.623Z,100214.06
2022-09-30T01:58:18.860Z,100226.47
2022-09-30T02:00:22.669Z,100233.34
2022-09-30T02:02:31.236Z,100231.31
2022-09-30T02:04:40.666Z,100221.56
2022-09-30T02:06:49.544Z,100212.69
2022-09-30T02:08:58.450Z,100206.63
2022-09-30T02:11:08.429Z,100191.22
2022-09-30T02:13:16.804Z,100184.31
2022-09-30T02:15:23.937Z,100184.22
2022-09-30T02:17:33.176Z,100177.97
2022-09-30T02:19:40.907Z,100176.66
2022-09-30T02:21:48.708Z,100169.13
2022-09-30T02:23:56.953Z,100151.94
2022-09-30T02:26:06.091Z,100134.72
2022-09-30T02:28:15.989Z,100139.56
2022-09-30T02:30:19.938Z,100145.22
2022-09-30T02:32:27.483Z,100136.75
2022-09-30T02:34:37.732Z,100120.41
2022-09-30T02:36:46.155Z,100108.34
2022-09-30T02:38:56.375Z,100109.69
2022-09-30T02:41:06.628Z,100106.47
2022-09-30T02:43:11.300Z,100101.53
2022-09-30T02:45:18.309Z,100087.06
2022-09-30T02:47:30.467Z,100069.84
2022-09-30T02:49:41.537Z,100071.28
2022-09-30T02:51:57.171Z,100071.03
2022-09-30T02:54:08.701Z,100060.16
2022-09-30T02:56:26.106Z,100063.56
2022-09-30T02:58:33.915Z,100062.47
2022-09-30T03:00:37.311Z,100063.31
2022-09-30T03:02:40.973Z,100051.75
2022-09-30T03:04:47.479Z,100051.75
2022-09-30T03:06:51.044Z,100060.53
2022-09-30T03:08:54.774Z,100052.44
2022-09-30T03:10:58.212Z,100045.47
2022-09-30T03:13:19.642Z,100028.69
2022-09-30T03:15:42.369Z,100040.19
2022-09-30T03:18:16.134Z,100021.72
2022-09-30T03:20:49.284Z,100024.25
2022-09-30T03:23:13.259Z,100021.47
2022-09-30T03:25:28.479Z,100020.50
2022-09-30T03:27:38.591Z,100015.09
2022-09-30T03:29:48.714Z,100005.19
2022-09-30T03:32:03.060Z,99994.44
2022-09-30T03:34:19.733Z,99979.41
2022-09-30T03:36:29.120Z,99969.50
2022-09-30T03:38:42.888Z,99971.31
2022-09-30T03:40:56.025Z,99966.84
2022-09-30T03:43:06.314Z,99965.88
2022-09-30T03:45:16.170Z,99957.91
2022-09-30T03:47:23.358Z,99959.72
2022-09-30T03:49:32.090Z,99952.63
2022-09-30T03:51:39.869Z,99961.53
2022-09-30T03:53:44.278Z,99950.91
2022-09-30T03:55:49.992Z,99942.97
2022-09-30T03:57:54.560Z,99935.00
2022-09-30T03:59:58.037Z,99926.91
2022-09-30T04:02:01.358Z,99913.66
2022-09-30T04:04:04.732Z,99911.88
2022-09-30T04:06:12.655Z,99902.09
2022-09-30T04:08:17.782Z,99894.00
2022-09-30T04:10:21.121Z,99886.88
2022-09-30T04:12:24.389Z,99892.06
2022-09-30T04:14:27.633Z,99878.69
2022-09-30T04:16:31.884Z,99872.50
2022-09-30T04:18:37.392Z,99869.03
2022-09-30T04:20:40.811Z,99869.03
2022-09-30T04:22:44.183Z,99869.16
2022-09-30T04:24:48.796Z,99865.53
2022-09-30T04:26:52.924Z,99866.50
2022-09-30T04:28:58.759Z,99863.84
2022-09-30T04:31:02.237Z,99855.16
2022-09-30T04:33:05.517Z,99853.50
2022-09-30T04:35:09.317Z,99840.34
2022-09-30T04:37:13.962Z,99836.88
2022-09-30T04:39:17.244Z,99836.88
2022-09-30T04:41:22.254Z,99835.91
2022-09-30T04:43:26.923Z,99824.56
2022-09-30T04:45:30.373Z,99813.97
2022-09-30T04:47:33.622Z,99813.25
2022-09-30T04:49:37.168Z,99797.34
2022-09-30T04:51:44.045Z,99803.47
2022-09-30T04:53:47.999Z,99795.53
2022-09-30T04:55:51.405Z,99784.78
2022-09-30T04:57:56.024Z,99784.78
2022-09-30T04:59:59.563Z,99770.56
2022-09-30T05:02:03.246Z,99761.63
2022-09-30T05:04:06.566Z,99755.47
2022-09-30T05:06:10.773Z,99749.34
2022-09-30T05:08:14.161Z,99741.25
2022-09-30T05:10:17.678Z,99734.16
2022-09-30T05:12:20.995Z,99720.88
2022-09-30T05:14:25.612Z,99720.88
2022-09-30T05:16:29.155Z,99711.94
2022-09-30T05:18:34.199Z,99702.19
2022-09-30T05:20:37.433Z,99689.06
2022-09-30T05:22:40.777Z,99685.41
2022-09-30T05:24:44.281Z,99678.44
2022-09-30T05:26:47.568Z,99671.31
2022-09-30T05:28:50.926Z,99656.38
2022-09-30T05:30:59.657Z,99648.41
2022-09-30T05:33:03.037Z,99636.97
2022-09-30T05:35:06.991Z,99630.72
2022-09-30T05:37:10.793Z,99605.84
2022-09-30T05:39:14.298Z,99616.44
2022-09-30T05:41:19.684Z,99622.47
2022-09-30T05:43:23.958Z,99614.38
2022-09-30T05:45:28.186Z,99613.41
2022-09-30T05:47:32.877Z,99603.34
2022-09-30T05:49:36.073Z,99600.59
2022-09-30T05:51:39.681Z,99581.88
2022-09-30T05:53:43.659Z,99575.47
2022-09-30T05:55:48.128Z,99558.41
2022-09-30T05:57:53.141Z,99548.38
2022-09-30T05:59:57.925Z,99534.97
2022-09-30T06:02:01.625Z,99526.72
2022-09-30T06:04:06.497Z,99530.09
2022-09-30T06:06:09.862Z,99516.69
2022-09-30T06:08:13.716Z,99508.44
2022-09-30T06:10:17.010Z,99504.00
2022-09-30T06:12:20.351Z,99484.31
2022-09-30T06:14:23.561Z,99468.25
2022-09-30T06:16:26.946Z,99453.84
2022-09-30T06:18:31.210Z,99435.13
2022-09-30T06:20:35.988Z,99432.34
2022-09-30T06:22:39.533Z,99433.88
2022-09-30T06:24:43.007Z,99428.28
2022-09-30T06:26:46.280Z,99413.75
2022-09-30T06:28:50.430Z,99414.31
2022-09-30T06:30:53.666Z,99433.56
2022-09-30T06:32:58.407Z,99439.59
2022-09-30T06:35:03.331Z,99436.94
2022-09-30T06:37:08.001Z,99446.13
2022-09-30T06:39:13.703Z,99426.59
2022-09-30T06:41:18.010Z,99423.63
2022-09-30T06:43:22.036Z,99426.97
2022-09-30T06:45:32.156Z,99408.13
2022-09-30T06:47:36.141Z,99400.97
2022-09-30T06:49:48.002Z,99392.88
2022-09-30T06:51:52.466Z,99381.25
2022-09-30T06:53:57.415Z,99377.63
2022-09-30T06:56:00.817Z,99378.31
2022-09-30T06:58:04.432Z,99362.13
2022-09-30T07:00:09.191Z,99358.34
2022-09-30T07:02:13.489Z,99348.25
2022-09-30T07:04:17.036Z,99350.47
2022-09-30T07:06:20.372Z,99333.56
2022-09-30T07:08:25.911Z,99341.38
2022-09-30T07:10:30.714Z,99350.06
2022-09-30T07:12:34.565Z,99351.69
2022-09-30T07:14:38.250Z,99344.44
2022-09-30T07:16:44.847Z,99331.97
2022-09-30T07:18:48.388Z,99332.84
2022-09-30T07:20:53.461Z,99331.00
2022-09-30T07:22:59.003Z,99298.97
2022-09-30T07:25:04.232Z,99290.03
2022-09-30T07:27:09.032Z,99271.44
2022-09-30T07:29:14.037Z,99255.34
2022-09-30T07:31:32.565Z,99257.00
2022-09-30T07:33:36.737Z,99256.84
2022-09-30T07:35:39.975Z,99254.19
2022-09-30T07:37:43.290Z,99270.13
2022-09-30T07:39:49.057Z,99267.47
2022-09-30T07:41:55.034Z,99253.91
2022-09-30T07:43:59.993Z,99252.59
2022-09-30T07:46:09.154Z,99239.03
2022-09-30T07:48:32.788Z,99243.19
2022-09-30T07:50:35.815Z,99213.53
2022-09-30T07:52:39.533Z,99175.19
2022-09-30T07:54:49.539Z,99168.72
2022-09-30T07:57:11.102Z,99164.09
2022-09-30T07:59:16.692Z,99158.59
2022-09-30T08:01:20.200Z,99135.38
2022-09-30T08:03:23.505Z,99152.97
2022-09-30T08:05:26.750Z,99146.84
2022-09-30T08:07:30.221Z,99114.94
2022-09-30T08:09:33.590Z,99095.34
2022-09-30T08:11:38.370Z,99070.44
2022-09-30T08:13:42.030Z,99074.91
2022-09-30T08:15:46.783Z,99056.16
2022-09-30T08:17:50.056Z,99039.91
2022-09-30T08:19:53.418Z,99038.88
2022-09-30T08:21:56.814Z,99013.00
2022-09-30T08:24:00.201Z,99003.72
2022-09-30T08:26:05.234Z,99018.53
2022-09-30T08:28:09.020Z,99015.69
2022-09-30T08:30:13.274Z,99008.38
2022-09-30T08:32:18.089Z,98980.47
2022-09-30T08:34:21.750Z,98972.88
2022-09-30T08:36:27.579Z,98963.75
2022-09-30T08:38:31.129Z,98973.38
2022-09-30T08:40:40.583Z,98955.44
2022-09-30T08:43:04.439Z,98957.25
2022-09-30T08:45:18.506Z,98948.31
2022-09-30T08:47:40.052Z,98925.03
2022-09-30T08:49:55.882Z,98907.91
2022-09-30T08:52:01.427Z,98914.56
2022-09-30T08:54:08.219Z,98905.78
2022-09-30T08:56:21.920Z,98887.97
2022-09-30T08:58:29.574Z,98880.00
2022-09-30T09:00:33.245Z,98862.22
2022-09-30T09:02:45.321Z,98858.56
2022-09-30T09:04:52.741Z,98838.59
2022-09-30T09:07:06.768Z,98830.97
2022-09-30T09:09:32.974Z,98808.19
2022-09-30T09:12:01.081Z,98819.84
2022-09-30T09:14:09.440Z,98831.47
2022-09-30T09:16:21.314Z,98815.38
2022-09-30T09:18:53.655Z,98811.88
2022-09-30T09:21:00.018Z,98797.69
2022-09-30T09:23:05.501Z,98793.22
2022-09-30T09:25:14.603Z,98783.69
2022-09-30T09:27:25.001Z,98808.00
2022-09-30T09:29:40.958Z,98817.13
2022-09-30T09:31:44.519Z,98815.63
2022-09-30T09:33:48.438Z,98820.59
2022-09-30T09:35:59.768Z,98845.88
2022-09-30T09:38:26.763Z,98839.56
2022-09-30T09:40:40.219Z,98826.59
2022-09-30T09:42:58.905Z,98820.94
2022-09-30T09:45:05.973Z,98800.81
2022-09-30T09:47:15.233Z,98807.28
2022-09-30T09:49:36.442Z,98806.66
2022-09-30T09:51:47.388Z,98798.66
2022-09-30T09:53:53.047Z,98762.84
2022-09-30T09:56:00.283Z,98796.66
2022-09-30T09:58:09.169Z,98778.69
2022-09-30T10:00:31.646Z,98780.81
2022-09-30T10:02:35.034Z,98782.13
2022-09-30T10:04:51.123Z,98785.47
2022-09-30T10:07:00.027Z,98756.97
2022-09-30T10:09:03.415Z,98756.00
2022-09-30T10:11:08.774Z,98751.47
2022-09-30T10:13:18.063Z,98759.28
2022-09-30T10:15:23.483Z,98770.81
2022-09-30T10:17:30.209Z,98773.28
2022-09-30T10:19:35.815Z,98761.78
2022-09-30T10:21:39.099Z,98764.44
2022-09-30T10:23:43.793Z,98754.63
2022-09-30T10:26:00.700Z,98755.47
2022-09-30T10:28:21.613Z,98728.66
2022-09-30T10:30:39.613Z,98716.16
2022-09-30T10:32:42.875Z,98706.97
2022-09-30T10:34:46.321Z,98736.94
2022-09-30T10:36:50.324Z,98711.63
2022-09-30T10:39:03.979Z,98703.94
2022-09-30T10:41:10.177Z,98706.25
2022-09-30T10:43:23.090Z,98693.41
2022-09-30T10:45:32.908Z,98708.03
2022-09-30T10:47:37.400Z,98705.50
2022-09-30T10:49:46.729Z,98693.47
2022-09-30T10:51:50.143Z,98683.44
2022-09-30T10:53:53.596Z,98692.13
2022-09-30T10:55:58.556Z,98666.09
2022-09-30T10:58:21.094Z,98690.09
2022-09-30T11:00:27.628Z,98674.56
2022-09-30T11:02:37.018Z,98662.72
2022-09-30T11:04:47.977Z,98661.19
2022-09-30T11:06:55.554Z,98668.19
2022-09-30T11:09:03.229Z,98664.28
2022-09-30T11:11:14.370Z,98658.63
2022-09-30T11:13:23.222Z,98665.59
2022-09-30T11:15:34.473Z,98651.97
2022-09-30T11:17:43.228Z,98652.41
2022-09-30T11:19:52.556Z,98645.69
2022-09-30T11:22:00.386Z,98651.34
2022-09-30T11:24:09.581Z,98652.63
2022-09-30T11:26:25.548Z,98643.44
2022-09-30T11:28:45.036Z,98624.38
2022-09-30T11:30:57.930Z,98631.19
2022-09-30T11:33:19.247Z,98621.63
2022-09-30T11:35:45.379Z,98602.63
2022-09-30T11:38:02.981Z,98626.25
2022-09-30T11:40:31.924Z,98626.25
2022-09-30T11:42:43.992Z,98627.25
2022-09-30T11:44:48.429Z,98632.59
2022-09-30T11:47:33.382Z,98643.84
2022-09-30T11:50:06.098Z,98634.72
2022-09-30T11:52:17.645Z,98647.41
2022-09-30T11:54:35.299Z,98662.78
2022-09-30T11:56:48.466Z,98660.25
2022-09-30T11:58:55.379Z,98646.47
2022-09-30T12:01:07.699Z,98633.13
2022-09-30T12:03:17.722Z,98634.13
2022-09-30T12:05:25.414Z,98649.13
2022-09-30T12:07:40.213Z,98651.81
2022-09-30T12:09:48.912Z,98674.78
2022-09-30T12:11:57.924Z,98659.63
2022-09-30T12:14:06.862Z,98661.44
2022-09-30T12:16:16.295Z,98658.78
2022-09-30T12:18:24.108Z,98688.13
2022-09-30T12:20:31.718Z,98687.13
2022-09-30T12:22:40.748Z,98681.78
2022-09-30T12:24:45.828Z,98694.13
2022-09-30T12:26:49.649Z,98717.94
2022-09-30T12:29:16.337Z,98725.75
2022-09-30T12:32:01.668Z,98729.28
2022-09-30T12:34:22.271Z,98736.09
2022-09-30T12:36:41.258Z,98746.75
2022-09-30T12:39:12.574Z,98757.44
2022-09-30T12:41:39.397Z,98765.59
2022-09-30T12:44:17.227Z,98779.09
2022-09-30T12:46:41.036Z,98764.78
2022-09-30T12:48:51.792Z,98783.63
2022-09-30T12:50:58.526Z,98797.16
2022-09-30T12:53:14.663Z,98805.78
2022-09-30T12:55:28.402Z,98803.59
2022-09-30T12:57:36.731Z,98803.59
2022-09-30T12:59:48.755Z,98810.78
2022-09-30T13:01:52.785Z,98808.13
2022-09-30T13:07:25.129Z,98813.72
2022-09-30T13:09:35.582Z,98800.88
2022-09-30T13:11:42.314Z,98801.34
2022-09-30T13:14:01.162Z,98814.69
2022-09-30T13:16:06.949Z,98804.03
2022-09-30T13:18:48.047Z,98794.16
2022-09-30T13:20:55.557Z,98803.66
2022-09-30T13:23:00.663Z,98794.66
2022-09-30T13:25:14.605Z,98809.00
2022-09-30T13:27:18.352Z,98813.34
2022-09-30T13:29:40.148Z,98810.66
2022-09-30T13:32:05.762Z,98816.81
2022-09-30T13:34:13.606Z,98825.47
2022-09-30T13:36:29.459Z,98817.63
2022-09-30T13:38:41.796Z,98827.31
2022-09-30T13:41:01.867Z,98836.13
2022-09-30T13:43:06.958Z,98834.31
2022-09-30T13:45:17.819Z,98826.75
2022-09-30T13:47:29.273Z,98839.97
2022-09-30T13:49:44.040Z,98838.75
2022-09-30T13:51:48.900Z,98847.03
2022-09-30T13:53:57.298Z,98850.56
2022-09-30T13:56:06.704Z,98846.22
2022-09-30T13:58:30.762Z,98852.19
2022-09-30T14:00:51.315Z,98853.22
2022-09-30T14:03:22.293Z,98844.19
2022-09-30T14:05:43.789Z,98854.88
2022-09-30T14:08:06.309Z,98860.22
2022-09-30T14:10:29.259Z,98848.72
2022-09-30T14:12:45.785Z,98848.72
2022-09-30T14:15:09.589Z,98861.88
2022-09-30T14:17:30.373Z,98862.72
2022-09-30T14:20:02.829Z,98870.88
2022-09-30T14:22:08.981Z,98868.59
2022-09-30T14:24:16.371Z,98872.63
2022-09-30T14:26:43.060Z,98872.31
2022-09-30T14:28:55.480Z,98864.03
2022-09-30T14:31:09.744Z,98877.88
2022-09-30T14:33:24.665Z,98856.25
2022-09-30T14:35:30.148Z,98869.75
2022-09-30T14:37:38.711Z,98862.78
2022-09-30T14:39:43.357Z,98861.94
2022-09-30T14:41:54.595Z,98867.28
2022-09-30T14:44:03.145Z,98871.59
2022-09-30T14:46:10.354Z,98870.94
2022-09-30T14:48:18.679Z,98877.31
2022-09-30T14:50:26.342Z,98865.78
2022-09-30T14:52:38.561Z,98880.97
2022-09-30T14:54:49.052Z,98887.13
2022-09-30T14:56:55.520Z,98873.16
2022-09-30T14:59:01.197Z,98867.81
2022-09-30T15:01:08.513Z,98893.63
2022-09-30T15:03:14.404Z,98874.81
2022-09-30T15:05:19.649Z,98876.13
2022-09-30T15:07:23.778Z,98879.44
2022-09-30T15:09:32.703Z,98870.06
2022-09-30T15:11:39.709Z,98861.50
2022-09-30T15:13:45.346Z,98869.00
2022-09-30T15:15:49.084Z,98872.13
2022-09-30T15:17:55.689Z,98872.81
2022-09-30T15:20:00.284Z,98887.25
2022-09-30T15:22:06.540Z,98877.25
2022-09-30T15:24:12.539Z,98885.91
2022-09-30T15:26:17.115Z,98891.72
2022-09-30T15:28:20.964Z,98896.69
2022-09-30T15:30:29.524Z,98885.84
2022-09-30T15:32:35.803Z,98891.66
2022-09-30T15:34:40.061Z,98894.69
2022-09-30T15:36:45.162Z,98890.53
2022-09-30T15:38:51.863Z,98892.25
2022-09-30T15:41:00.822Z,98879.25
2022-09-30T15:43:07.429Z,98887.63
2022-09-30T15:45:35.018Z,98902.69
2022-09-30T15:47:56.385Z,98898.06
2022-09-30T15:50:01.102Z,98911.09
2022-09-30T15:52:30.741Z,98926.97
2022-09-30T15:54:39.525Z,98924.84
2022-09-30T15:56:46.463Z,98922.34
2022-09-30T15:58:57.541Z,98914.03
2022-09-30T16:01:15.823Z,98918.06
2022-09-30T16:03:29.265Z,98908.56
2022-09-30T16:05:33.884Z,98918.75
2022-09-30T16:07:37.676Z,98916.41
2022-09-30T16:09:42.979Z,98920.13
2022-09-30T16:11:54.292Z,98929.94
2022-09-30T16:13:59.938Z,98928.94
2022-09-30T16:16:04.028Z,98941.28
2022-09-30T16:18:20.436Z,98938.59
2022-09-30T16:20:26.458Z,98933.59
2022-09-30T16:22:49.674Z,98932.09
2022-09-30T16:25:02.877Z,98932.44
2022-09-30T16:27:23.813Z,98932.78
2022-09-30T16:29:28.718Z,98933.13
2022-09-30T16:31:34.309Z,98933.47
2022-09-30T16:33:43.948Z,98936.31
2022-09-30T16:35:48.820Z,98933.16
2022-09-30T16:37:59.507Z,98937.66
2022-09-30T16:40:16.681Z,98938.00
2022-09-30T16:42:20.992Z,98942.69
2022-09-30T16:44:24.733Z,98939.34
2022-09-30T16:46:28.844Z,98950.34
2022-09-30T16:48:32.757Z,98939.19
2022-09-30T16:50:41.744Z,98949.22
2022-09-30T16:52:45.400Z,98939.72
2022-09-30T16:54:49.170Z,98952.38
2022-09-30T16:56:53.477Z,98952.72
2022-09-30T16:59:00.347Z,98947.56
2022-09-30T17:01:04.509Z,98947.06
2022-09-30T17:03:08.503Z,98947.22
2022-09-30T17:05:16.354Z,98949.38
2022-09-30T17:07:21.715Z,98948.75
2022-09-30T17:09:26.745Z,98952.56
2022-09-30T17:11:33.439Z,98958.25
2022-09-30T17:13:37.272Z,98958.59
2022-09-30T17:15:42.760Z,98960.59
2022-09-30T17:17:46.674Z,98951.44
2022-09-30T17:19:50.501Z,98951.78
2022-09-30T17:21:54.199Z,98946.75
2022-09-30T17:23:59.704Z,98963.09
2022-09-30T17:26:06.171Z,98959.09
2022-09-30T17:28:11.327Z,98959.44
2022-09-30T17:30:15.786Z,98973.22
2022-09-30T17:32:19.649Z,98963.78
2022-09-30T17:34:24.281Z,98975.75
2022-09-30T17:36:27.909Z,98977.09
2022-09-30T17:38:32.084Z,98981.72
2022-09-30T17:40:54.667Z,98985.72
2022-09-30T17:43:11.259Z,98977.22
2022-09-30T17:45:15.380Z,98990.03
2022-09-30T17:47:19.084Z,99001.00
2022-09-30T17:49:24.304Z,99012.81
2022-09-30T17:51:28.066Z,99012.31
2022-09-30T17:53:31.977Z,99015.28
2022-09-30T17:55:37.120Z,99020.06
2022-09-30T17:57:41.023Z,99021.41
2022-09-30T17:59:46.771Z,99017.22
2022-09-30T18:01:51.209Z,99017.56
2022-09-30T18:03:59.550Z,99021.22
2022-09-30T18:06:04.112Z,99020.69
2022-09-30T18:08:07.871Z,99021.88
2022-09-30T18:10:12.896Z,99029.97
2022-09-30T18:12:18.445Z,99033.81
2022-09-30T18:14:22.213Z,99033.97
2022-09-30T18:16:30.456Z,99039.44
2022-09-30T18:18:35.981Z,99030.13
2022-09-30T18:20:45.062Z,99034.78
2022-09-30T18:22:49.143Z,99041.09
2022-09-30T18:25:09.830Z,99043.09
2022-09-30T18:27:13.893Z,99045.06
2022-09-30T18:29:20.536Z,99032.91
2022-09-30T18:31:29.148Z,99034.06
2022-09-30T18:33:32.849Z,99038.72
2022-09-30T18:35:38.658Z,99046.88
2022-09-30T18:37:43.391Z,99046.16
2022-09-30T18:39:47.114Z,99045.34
2022-09-30T18:41:50.678Z,99054.31
2022-09-30T18:43:59.956Z,99048.31
2022-09-30T18:46:05.574Z,99051.97
2022-09-30T18:48:11.147Z,99058.94
2022-09-30T18:50:16.368Z,99045.81
2022-09-30T18:52:20.140Z,99058.28
2022-09-30T18:54:24.494Z,99047.66
2022-09-30T18:56:32.153Z,99045.97
2022-09-30T18:58:37.031Z,99045.31
2022-09-30T19:00:41.334Z,99045.47
2022-09-30T19:02:46.824Z,99049.94
2022-09-30T19:04:50.792Z,99032.19
2022-09-30T19:06:54.546Z,99035.81
2022-09-30T19:08:59.171Z,99027.00
2022-09-30T19:11:13.035Z,99025.50
2022-09-30T19:13:17.002Z,99012.34
2022-09-30T19:15:21.122Z,99025.63
2022-09-30T19:17:26.556Z,99022.97
2022-09-30T19:19:32.540Z,99030.84
2022-09-30T19:21:37.193Z,99029.97
2022-09-30T19:23:41.257Z,99020.19
2022-09-30T19:25:45.632Z,99023.84
2022-09-30T19:27:50.282Z,99024.66
2022-09-30T19:29:58.568Z,99035.28
2022-09-30T19:32:03.915Z,99034.63
2022-09-30T19:34:08.545Z,99039.25
2022-09-30T19:36:15.392Z,99044.75
2022-09-30T19:38:24.450Z,99038.75
2022-09-30T19:42:42.834Z,99046.38
2022-09-30T19:44:46.739Z,99048.16
2022-09-30T19:46:51.760Z,99040.53
2022-09-30T19:48:56.049Z,99053.97
2022-09-30T19:51:00.355Z,99052.47
2022-09-30T19:53:05.591Z,99063.09
2022-09-30T19:55:16.306Z,99050.94
2022-09-30T19:57:20.819Z,99069.69
2022-09-30T19:59:25.936Z,99069.03
2022-09-30T20:01:31.374Z,99073.34
2022-09-30T20:03:36.802Z,99077.00
2022-09-30T20:05:44.207Z,99074.34
2022-09-30T20:07:51.435Z,99071.69
2022-09-30T20:09:57.237Z,99075.34
2022-09-30T20:12:01.042Z,99076.00
2022-09-30T20:14:24.118Z,99062.72
2022-09-30T20:16:28.243Z,99069.69
2022-09-30T20:18:32.686Z,99075.00
2022-09-30T20:20:35.359Z,99068.88
2022-09-30T20:22:39.402Z,99070.53
2022-09-30T20:24:43.215Z,99077.50
2022-09-30T20:26:50.462Z,99075.84
2022-09-30T20:28:57.973Z,99099.63
2022-09-30T20:31:07.573Z,99095.13
2022-09-30T20:33:11.384Z,99099.63
2022-09-30T20:35:15.055Z,99096.81
2022-09-30T20:37:18.939Z,99102.94
2022-09-30T20:39:23.913Z,99109.94
2022-09-30T20:41:28.478Z,99115.41
2022-09-30T20:43:35.851Z,99113.59
2022-09-30T20:45:41.246Z,99116.25
2022-09-30T20:47:46.107Z,99114.41
2022-09-30T20:49:49.923Z,99125.03
2022-09-30T20:51:53.607Z,99123.22
2022-09-30T20:53:59.109Z,99130.88
2022-09-30T20:56:03.256Z,99132.88
2022-09-30T20:58:08.776Z,99127.56
2022-09-30T21:00:16.390Z,99128.53
2022-09-30T21:02:24.478Z,99134.69
2022-09-30T21:04:28.386Z,99126.22
2022-09-30T21:06:33.505Z,99117.53
2022-09-30T21:08:39.306Z,99132.81
2022-09-30T21:10:43.022Z,99128.81
2022-09-30T21:12:46.720Z,99126.28
2022-09-30T21:14:50.684Z,99119.47
2022-09-30T21:16:55.955Z,99145.34
2022-09-30T21:19:00.250Z,99152.66
2022-09-30T21:21:04.676Z,99166.22
2022-09-30T21:23:08.484Z,99163.72
2022-09-30T21:25:13.404Z,99170.88
2022-09-30T21:27:17.437Z,99174.50
2022-09-30T21:29:22.462Z,99178.84
2022-09-30T21:31:27.775Z,99179.81
2022-09-30T21:33:33.133Z,99182.63
2022-09-30T21:35:36.997Z,99180.13
2022-09-30T21:37:40.783Z,99182.78
2022-09-30T21:39:48.258Z,99186.56
2022-09-30T21:41:51.808Z,99192.84
2022-09-30T21:43:56.037Z,99190.34
2022-09-30T21:46:01.584Z,99187.16
2022-09-30T21:48:10.581Z,99192.47
2022-09-30T21:50:15.836Z,99201.56
2022-09-30T21:52:19.533Z,99201.72
2022-09-30T21:54:23.534Z,99214.19
2022-09-30T21:56:28.279Z,99211.69
2022-09-30T21:58:33.862Z,99215.47
2022-09-30T22:00:37.771Z,99216.59
2022-09-30T22:02:41.789Z,99226.41
2022-09-30T22:04:45.632Z,99219.41
2022-09-30T22:06:51.381Z,99217.06
2022-09-30T22:08:55.192Z,99218.97
2022-09-30T22:10:58.814Z,99219.13
2022-09-30T22:13:03.059Z,99217.44
2022-09-30T22:15:07.513Z,99215.94
2022-09-30T22:17:11.255Z,99211.63
2022-09-30T22:19:14.927Z,99205.63
2022-09-30T22:21:18.857Z,99214.56
2022-09-30T22:23:23.792Z,99225.31
2022-09-30T22:25:30.878Z,99228.13
2022-09-30T22:27:35.065Z,99229.09
2022-09-30T22:29:38.698Z,99230.94
2022-09-30T22:31:42.576Z,99239.06
2022-09-30T22:34:04.358Z,99236.56
2022-09-30T22:36:25.189Z,99242.84
2022-09-30T22:38:30.713Z,99248.16
2022-09-30T22:40:34.621Z,99243.00
2022-09-30T22:42:38.922Z,99243.00
2022-09-30T22:44:42.812Z,99243.97
2022-09-30T22:46:46.765Z,99253.91
2022-09-30T22:48:50.748Z,99250.53
2022-09-30T22:50:54.566Z,99256.81
2022-09-30T22:52:58.293Z,99247.22
2022-09-30T22:55:03.424Z,99244.69
2022-09-30T22:57:09.347Z,99245.53
2022-09-30T22:59:13.091Z,99255.19
2022-09-30T23:01:16.770Z,99255.03
2022-09-30T23:03:20.289Z,99249.88
2022-09-30T23:05:26.331Z,99248.03
2022-09-30T23:07:29.914Z,99255.19
2022-09-30T23:09:33.797Z,99251.66
2022-09-30T23:11:39.441Z,99247.22
2022-09-30T23:13:43.079Z,99257.84
2022-09-30T23:15:46.583Z,99256.16
2022-09-30T23:17:50.311Z,99261.47
2022-09-30T23:19:54.253Z,99260.50
2022-09-30T23:21:58.095Z,99258.66
2022-09-30T23:24:02.271Z,99264.78
2022-09-30T23:26:08.363Z,99266.47
2022-09-30T23:28:13.865Z,99268.16
2022-09-30T23:30:18.098Z,99268.97
2022-09-30T23:32:21.775Z,99271.47
2022-09-30T23:34:25.516Z,99271.34
2022-09-30T23:36:31.444Z,99274.00
2022-09-30T23:38:35.674Z,99267.84
2022-09-30T23:40:44.355Z,99272.34
2022-09-30T23:42:51.562Z,99270.66
2022-09-30T23:44:56.952Z,99279.59
2022-09-30T23:47:17.889Z,99289.38
2022-09-30T23:49:21.599Z,99293.03
2022-09-30T23:51:25.285Z,99299.31
2022-09-30T23:53:29.227Z,99301.44
2022-09-30T23:55:32.929Z,99303.53
2022-09-30T23:57:36.503Z,99302.69
2022-09-30T23:59:40.200Z,99299.50
